createdAt,value
2018-11-04T00:00:44.225Z,1.03
2018-11-04T00:03:48.362Z,1.00
2018-11-04T00:06:52.245Z,1.07
2018-11-04T00:09:56.317Z,1.07
2018-11-04T00:13:00.237Z,0.60
2018-11-04T00:16:04.287Z,0.87
2018-11-04T00:19:08.213Z,0.90
2018-11-04T00:22:12.581Z,0.60
2018-11-04T00:25:16.811Z,0.70
2018-11-04T00:28:20.678Z,0.83
2018-11-04T00:31:25.090Z,0.87
2018-11-04T00:34:28.982Z,0.87
2018-11-04T00:37:32.864Z,0.40
2018-11-04T00:40:37.294Z,0.83
2018-11-04T00:43:41.153Z,0.97
2018-11-04T00:46:45.052Z,0.50
2018-11-04T00:49:49.134Z,0.30
2018-11-04T00:52:53.021Z,0.97
2018-11-04T00:55:57.234Z,0.40
2018-11-04T00:59:01.122Z,0.40
2018-11-04T01:02:05.281Z,0.43
2018-11-04T01:05:10.010Z,0.73
2018-11-04T01:08:13.889Z,0.30
2018-11-04T01:11:17.774Z,0.47
2018-11-04T01:14:21.680Z,0.60
2018-11-04T01:17:25.754Z,0.40
2018-11-04T01:20:29.978Z,0.50
2018-11-04T01:23:33.862Z,1.00
2018-11-04T01:26:37.741Z,1.00
2018-11-04T01:29:41.634Z,0.60
2018-11-04T01:32:45.833Z,0.60
2018-11-04T01:35:49.714Z,0.57
2018-11-04T01:38:53.606Z,0.40
2018-11-04T01:41:57.678Z,0.47
2018-11-04T01:45:01.569Z,0.50
2018-11-04T01:51:15.854Z,0.90
2018-11-04T01:54:19.729Z,0.30
2018-11-04T01:57:23.631Z,0.47
2018-11-04T02:00:27.514Z,0.50
2018-11-04T02:03:31.402Z,0.50
2018-11-04T02:06:35.524Z,0.70
2018-11-04T02:09:39.399Z,0.50
2018-11-04T02:12:43.304Z,0.30
2018-11-04T02:15:47.185Z,0.70
2018-11-04T02:18:51.090Z,1.07
2018-11-04T02:21:54.974Z,0.47
2018-11-04T02:24:59.002Z,0.67
2018-11-04T02:28:02.865Z,0.50
2018-11-04T02:31:06.809Z,0.40
2018-11-04T02:34:10.689Z,0.80
2018-11-04T02:37:14.576Z,0.30
2018-11-04T02:40:18.450Z,0.90
2018-11-04T02:43:22.665Z,0.70
2018-11-04T02:46:26.550Z,0.47
2018-11-04T02:49:30.448Z,0.37
2018-11-04T02:52:34.439Z,0.60
2018-11-04T02:55:38.351Z,0.67
2018-11-04T02:58:42.237Z,0.73
2018-11-04T03:01:46.298Z,0.60
2018-11-04T03:04:50.165Z,0.40
2018-11-04T03:07:54.050Z,0.57
2018-11-04T03:10:57.941Z,0.40
2018-11-04T03:14:01.826Z,0.40
2018-11-04T03:17:06.210Z,0.47
2018-11-04T03:20:10.097Z,0.67
2018-11-04T03:23:13.986Z,0.73
2018-11-04T03:26:17.863Z,0.77
2018-11-04T03:29:22.094Z,0.60
2018-11-04T03:32:26.016Z,0.83
2018-11-04T03:35:29.898Z,0.93
2018-11-04T03:38:33.790Z,0.90
2018-11-04T03:41:37.783Z,0.60
2018-11-04T03:44:41.858Z,0.90
2018-11-04T03:47:45.751Z,1.07
2018-11-04T03:50:49.978Z,1.60
2018-11-04T03:53:53.862Z,0.83
2018-11-04T03:56:58.069Z,0.67
2018-11-04T04:00:01.941Z,0.97
2018-11-04T04:03:05.824Z,0.60
2018-11-04T04:06:09.702Z,0.80
2018-11-04T04:09:13.585Z,0.90
2018-11-04T04:12:17.475Z,0.80
2018-11-04T04:15:21.361Z,0.90
2018-11-04T04:18:25.782Z,0.70
2018-11-04T04:21:29.670Z,0.50
2018-11-04T04:24:33.554Z,0.43
2018-11-04T04:27:37.427Z,0.50
2018-11-04T04:30:41.305Z,0.90
2018-11-04T04:33:45.186Z,1.17
2018-11-04T04:36:49.058Z,0.50
2018-11-04T04:39:52.928Z,0.93
2018-11-04T04:42:56.818Z,1.00
2018-11-04T04:46:00.714Z,0.60
2018-11-04T04:49:04.677Z,1.00
2018-11-04T04:52:08.549Z,1.17
2018-11-04T04:55:12.774Z,1.13
2018-11-04T04:58:16.662Z,0.50
2018-11-04T05:01:20.535Z,1.17
2018-11-04T05:04:24.414Z,1.23
2018-11-04T05:07:28.296Z,0.70
2018-11-04T05:10:32.169Z,0.87
2018-11-04T05:13:36.049Z,0.97
2018-11-04T05:16:39.966Z,0.97
2018-11-04T05:19:43.845Z,1.57
2018-11-04T05:22:48.057Z,0.60
2018-11-04T05:25:51.939Z,0.60
2018-11-04T05:28:55.817Z,0.90
2018-11-04T05:31:59.701Z,0.70
2018-11-04T05:35:03.639Z,0.53
2018-11-04T05:38:07.558Z,0.70
2018-11-04T05:41:11.923Z,1.23
2018-11-04T05:44:15.805Z,1.13
2018-11-04T05:47:19.688Z,1.10
2018-11-04T05:50:23.884Z,1.00
2018-11-04T05:53:27.874Z,0.70
2018-11-04T05:56:31.749Z,0.80
2018-11-04T05:59:35.685Z,1.57
2018-11-04T06:02:40.470Z,0.60
2018-11-04T06:05:44.344Z,0.60
2018-11-04T06:08:48.226Z,0.80
2018-11-04T06:11:52.099Z,1.40
2018-11-04T06:14:55.966Z,1.47
2018-11-04T06:18:00.048Z,1.03
2018-11-04T06:21:04.177Z,1.00
2018-11-04T06:24:08.044Z,1.70
2018-11-04T06:27:12.253Z,1.17
2018-11-04T06:30:16.138Z,1.33
2018-11-04T06:33:20.018Z,0.80
2018-11-04T06:36:23.889Z,1.30
2018-11-04T06:39:27.769Z,1.00
2018-11-04T06:42:31.654Z,0.90
2018-11-04T06:45:35.738Z,0.50
2018-11-04T06:48:39.892Z,1.03
2018-11-04T06:51:43.769Z,1.40
2018-11-04T06:54:47.719Z,1.03
2018-11-04T06:57:51.632Z,2.10
2018-11-04T07:00:55.510Z,1.40
2018-11-04T07:04:11.365Z,1.00
2018-11-04T07:07:15.361Z,1.47
2018-11-04T07:10:19.252Z,1.40
2018-11-04T07:13:23.328Z,2.00
2018-11-04T07:16:27.197Z,1.17
2018-11-04T07:19:31.103Z,1.47
2018-11-04T07:22:34.979Z,0.93
2018-11-04T07:25:38.990Z,1.10
2018-11-04T07:28:43.015Z,1.27
2018-11-04T07:31:46.906Z,2.20
2018-11-04T07:34:50.780Z,1.63
2018-11-04T07:37:54.769Z,1.43
2018-11-04T07:40:58.618Z,1.07
2018-11-04T07:44:02.845Z,1.70
2018-11-04T07:47:06.915Z,2.30
2018-11-04T07:50:13.261Z,0.90
2018-11-04T07:53:17.145Z,2.60
2018-11-04T07:56:21.351Z,2.43
2018-11-04T07:59:25.401Z,2.00
2018-11-04T08:02:29.286Z,1.70
2018-11-04T08:05:33.185Z,1.10
2018-11-04T08:08:37.074Z,2.37
2018-11-04T08:11:40.964Z,1.97
2018-11-04T08:14:45.154Z,2.87
2018-11-04T08:17:49.030Z,2.00
2018-11-04T08:20:52.905Z,1.60
2018-11-04T08:23:56.859Z,1.70
2018-11-04T08:27:00.722Z,2.23
2018-11-04T08:30:05.980Z,1.90
2018-11-04T08:33:09.853Z,2.80
2018-11-04T08:36:13.909Z,2.13
2018-11-04T08:39:17.782Z,2.37
2018-11-04T08:42:21.658Z,1.40
2018-11-04T08:45:26.057Z,1.43
2018-11-04T08:48:30.145Z,3.03
2018-11-04T08:51:34.278Z,2.53
2018-11-04T08:54:38.141Z,2.93
2018-11-04T08:57:42.042Z,3.77
2018-11-04T09:00:46.264Z,2.20
2018-11-04T09:03:50.138Z,2.60
2018-11-04T09:06:54.126Z,3.23
2018-11-04T09:09:57.985Z,2.97
2018-11-04T09:13:01.862Z,2.43
2018-11-04T09:16:06.334Z,2.30
2018-11-04T09:19:10.215Z,3.30
2018-11-04T09:22:14.347Z,1.63
2018-11-04T09:25:18.478Z,4.80
2018-11-04T09:28:22.361Z,2.03
2018-11-04T09:31:26.230Z,2.57
2018-11-04T09:34:30.368Z,1.40
2018-11-04T09:37:34.728Z,2.27
2018-11-04T09:40:38.613Z,2.57
2018-11-04T09:43:42.521Z,2.40
2018-11-04T09:46:46.390Z,2.30
2018-11-04T09:49:50.329Z,3.23
2018-11-04T09:52:54.350Z,2.00
2018-11-04T09:55:58.241Z,2.53
2018-11-04T09:59:02.647Z,2.77
2018-11-04T10:02:06.538Z,2.30
2018-11-04T10:05:11.242Z,3.00
2018-11-04T10:08:15.126Z,1.97
2018-11-04T10:11:19.007Z,3.10
2018-11-04T10:14:22.869Z,2.40
2018-11-04T10:17:26.766Z,3.07
2018-11-04T10:20:31.337Z,2.40
2018-11-04T10:23:35.070Z,2.77
2018-11-04T10:26:39.159Z,3.30
2018-11-04T10:29:43.245Z,1.77
2018-11-04T10:32:47.122Z,2.23
2018-11-04T10:35:51.002Z,2.30
2018-11-04T10:38:55.076Z,2.50
2018-11-04T10:41:58.965Z,1.83
2018-11-04T10:45:02.916Z,2.23
2018-11-04T10:48:06.802Z,2.83
2018-11-04T10:51:11.014Z,2.90
2018-11-04T10:54:15.102Z,2.27
2018-11-04T10:57:19.326Z,3.20
2018-11-04T11:00:28.872Z,2.33
2018-11-04T11:03:33.082Z,2.83
2018-11-04T11:06:36.985Z,1.80
2018-11-04T11:09:40.861Z,2.37
2018-11-04T11:12:44.759Z,2.10
2018-11-04T11:15:48.853Z,2.00
2018-11-04T11:18:52.740Z,2.97
2018-11-04T11:21:56.637Z,2.17
2018-11-04T11:25:00.579Z,4.03
2018-11-04T11:28:04.561Z,3.13
2018-11-04T11:31:08.554Z,2.90
2018-11-04T11:34:12.421Z,2.57
2018-11-04T11:37:16.304Z,1.57
2018-11-04T11:40:20.378Z,3.20
2018-11-04T11:43:24.478Z,2.67
2018-11-04T11:46:28.358Z,2.60
2018-11-04T11:49:32.258Z,2.23
2018-11-04T11:52:36.286Z,1.83
2018-11-04T11:55:42.053Z,2.47
2018-11-04T11:58:46.004Z,3.43
2018-11-04T12:01:50.042Z,3.43
2018-11-04T12:04:53.938Z,2.73
2018-11-04T12:07:57.839Z,1.50
2018-11-04T12:11:01.938Z,2.83
2018-11-04T12:14:05.814Z,1.70
2018-11-04T12:17:09.700Z,1.67
2018-11-04T12:20:13.934Z,1.57
2018-11-04T12:23:17.813Z,2.57
2018-11-04T12:26:22.028Z,2.30
2018-11-04T12:29:26.029Z,3.20
2018-11-04T12:32:29.909Z,3.00
2018-11-04T12:35:34.144Z,2.53
2018-11-04T12:38:38.217Z,2.80
2018-11-04T12:41:42.482Z,2.30
2018-11-04T12:44:46.375Z,2.23
2018-11-04T12:47:50.433Z,1.73
2018-11-04T12:50:54.513Z,2.50
2018-11-04T12:53:58.425Z,2.30
2018-11-04T12:57:02.323Z,2.80
2018-11-04T13:00:10.752Z,2.10
2018-11-04T13:03:14.641Z,2.13
2018-11-04T13:06:18.567Z,1.67
2018-11-04T13:09:22.449Z,2.77
2018-11-04T13:12:26.339Z,1.70
2018-11-04T13:15:30.572Z,2.07
2018-11-04T13:18:41.693Z,1.90
2018-11-04T13:21:45.571Z,2.30
2018-11-04T13:24:49.459Z,2.90
2018-11-04T13:27:53.331Z,2.77
2018-11-04T13:30:57.228Z,2.40
2018-11-04T13:34:01.106Z,2.57
2018-11-04T13:37:05.892Z,1.80
2018-11-04T13:40:10.921Z,2.47
2018-11-04T13:43:15.242Z,1.90
2018-11-04T13:46:19.242Z,2.53
2018-11-04T13:49:23.396Z,2.00
2018-11-04T13:52:27.424Z,3.43
2018-11-04T13:55:31.322Z,3.10
2018-11-04T13:58:35.249Z,2.67
2018-11-04T14:01:39.466Z,2.10
2018-11-04T14:04:43.366Z,3.73
2018-11-04T14:07:47.249Z,3.27
2018-11-04T14:10:51.138Z,1.70
2018-11-04T14:13:55.024Z,2.10
2018-11-04T14:16:58.909Z,2.80
2018-11-04T14:20:03.211Z,3.07
2018-11-04T14:23:07.073Z,2.83
2018-11-04T14:26:10.970Z,2.73
2018-11-04T14:29:14.854Z,3.00
2018-11-04T14:32:19.094Z,2.27
2018-11-04T14:35:22.990Z,1.87
2018-11-04T14:38:27.220Z,2.27
2018-11-04T14:41:31.103Z,3.17
2018-11-04T14:44:34.983Z,2.70
2018-11-04T14:47:39.633Z,3.20
2018-11-04T14:50:43.505Z,3.40
2018-11-04T14:53:47.412Z,2.00
2018-11-04T14:56:51.489Z,2.73
2018-11-04T14:59:55.433Z,3.13
2018-11-04T15:02:59.466Z,3.00
2018-11-04T15:06:03.338Z,2.80
2018-11-04T15:09:08.261Z,2.70
2018-11-04T15:12:12.145Z,2.63
2018-11-04T15:15:17.206Z,3.50
2018-11-04T15:18:21.098Z,3.07
2018-11-04T15:21:24.986Z,2.97
2018-11-04T15:24:28.866Z,2.23
2018-11-04T15:27:32.766Z,2.17
2018-11-04T15:30:36.645Z,2.30
2018-11-04T15:33:40.561Z,2.40
2018-11-04T15:36:44.774Z,3.10
2018-11-04T15:39:48.645Z,2.77
2018-11-04T15:42:52.551Z,2.03
2018-11-04T15:45:56.623Z,2.60
2018-11-04T15:49:01.096Z,2.20
2018-11-04T15:52:05.154Z,2.50
2018-11-04T15:55:09.371Z,2.87
2018-11-04T15:58:13.479Z,2.17
2018-11-04T16:01:18.117Z,2.33
2018-11-04T16:04:22.091Z,2.20
2018-11-04T16:07:26.106Z,2.33
2018-11-04T16:10:29.987Z,2.57
2018-11-04T16:13:34.210Z,1.70
2018-11-04T16:16:38.078Z,3.10
2018-11-04T16:19:41.990Z,2.33
2018-11-04T16:22:46.246Z,1.73
2018-11-04T16:25:50.138Z,2.50
2018-11-04T16:28:54.213Z,2.43
2018-11-04T16:31:59.072Z,3.43
2018-11-04T16:35:03.438Z,3.40
2018-11-04T16:38:07.333Z,2.30
2018-11-04T16:41:11.469Z,3.47
2018-11-04T16:44:15.518Z,2.23
2018-11-04T16:47:19.521Z,1.77
2018-11-04T16:50:23.407Z,2.53
2018-11-04T16:53:27.288Z,2.10
2018-11-04T16:56:31.381Z,2.73
2018-11-04T16:59:35.315Z,2.00
2018-11-04T17:02:39.404Z,2.47
2018-11-04T17:05:43.643Z,3.57
2018-11-04T17:08:47.910Z,2.03
2018-11-04T17:11:52.142Z,2.20
2018-11-04T17:14:56.027Z,2.17
2018-11-04T17:17:59.938Z,3.10
2018-11-04T17:21:04.254Z,2.50
2018-11-04T17:24:08.148Z,3.23
2018-11-04T17:27:12.241Z,3.10
2018-11-04T17:30:17.674Z,2.60
2018-11-04T17:33:21.645Z,2.00
2018-11-04T17:36:26.000Z,3.97
2018-11-04T17:39:30.055Z,2.10
2018-11-04T17:42:34.125Z,3.40
2018-11-04T17:45:38.006Z,4.13
2018-11-04T17:48:41.926Z,2.87
2018-11-04T17:51:46.141Z,3.30
2018-11-04T17:54:50.035Z,3.30
2018-11-04T17:57:54.033Z,3.40
2018-11-04T18:00:57.917Z,4.33
2018-11-04T18:04:01.913Z,2.70
2018-11-04T18:07:06.225Z,2.90
2018-11-04T18:10:11.182Z,4.80
2018-11-04T18:13:15.077Z,4.20
2018-11-04T18:16:18.973Z,3.17
2018-11-04T18:19:22.952Z,4.10
2018-11-04T18:22:26.934Z,3.27
2018-11-04T18:25:30.814Z,2.80
2018-11-04T18:28:34.714Z,2.80
2018-11-04T18:31:38.640Z,2.90
2018-11-04T18:34:42.519Z,3.30
2018-11-04T18:37:46.597Z,2.47
2018-11-04T18:40:50.505Z,3.50
2018-11-04T18:43:54.713Z,3.80
2018-11-04T18:46:58.674Z,2.20
2018-11-04T18:50:02.589Z,3.37
2018-11-04T18:53:06.691Z,2.87
2018-11-04T18:56:10.584Z,3.70
2018-11-04T18:59:14.609Z,3.20
2018-11-04T19:02:18.550Z,2.80
2018-11-04T19:05:22.441Z,3.37
2018-11-04T19:08:26.517Z,2.97
2018-11-04T19:11:30.622Z,2.53
2018-11-04T19:14:34.692Z,3.03
2018-11-04T19:17:38.635Z,2.90
2018-11-04T19:20:42.721Z,3.60
2018-11-04T19:23:46.636Z,2.73
2018-11-04T19:26:50.519Z,3.70
2018-11-04T19:29:54.490Z,2.67
2018-11-04T19:32:58.394Z,2.80
2018-11-04T19:36:02.614Z,3.50
2018-11-04T19:39:09.043Z,2.70
2018-11-04T19:42:12.986Z,3.50
2018-11-04T19:45:17.029Z,3.70
2018-11-04T19:48:21.252Z,4.97
2018-11-04T19:51:25.211Z,3.27
2018-11-04T19:54:29.299Z,2.60
2018-11-04T19:57:33.291Z,3.70
2018-11-04T20:00:37.191Z,2.80
2018-11-04T20:03:41.289Z,2.87
2018-11-04T20:06:45.174Z,2.90
2018-11-04T20:09:49.066Z,2.50
2018-11-04T20:12:58.516Z,3.70
2018-11-04T20:16:02.627Z,3.90
2018-11-04T20:19:12.367Z,2.80
2018-11-04T20:22:16.443Z,3.00
2018-11-04T20:25:25.698Z,3.00
2018-11-04T20:28:29.721Z,3.23
2018-11-04T20:31:38.928Z,3.00
2018-11-04T20:34:42.801Z,2.40
2018-11-04T20:37:46.686Z,3.03
2018-11-04T20:40:56.018Z,2.80
2018-11-04T20:44:01.109Z,3.80
2018-11-04T20:47:05.498Z,3.20
2018-11-04T20:50:15.283Z,2.80
2018-11-04T20:53:19.214Z,3.10
2018-11-04T20:56:28.582Z,2.80
2018-11-04T20:59:32.467Z,3.20
2018-11-04T21:02:36.531Z,3.37
2018-11-04T21:05:40.492Z,3.10
2018-11-04T21:08:44.382Z,4.70
2018-11-04T21:11:48.264Z,4.27
2018-11-04T21:14:52.173Z,3.07
2018-11-04T21:17:56.045Z,2.30
2018-11-04T21:20:59.913Z,3.27
2018-11-04T21:24:03.787Z,3.60
2018-11-04T21:27:08.049Z,4.27
2018-11-04T21:30:12.988Z,3.27
2018-11-04T21:33:16.857Z,3.10
2018-11-04T21:36:22.015Z,3.03
2018-11-04T21:39:26.343Z,2.97
2018-11-04T21:42:30.708Z,3.93
2018-11-04T21:45:34.654Z,2.57
2018-11-04T21:48:38.538Z,4.33
2018-11-04T21:51:42.418Z,3.30
2018-11-04T21:54:46.503Z,2.63
2018-11-04T21:57:50.557Z,2.57
2018-11-04T22:00:54.519Z,6.20
2018-11-04T22:03:59.073Z,3.20
2018-11-04T22:07:02.930Z,3.50
2018-11-04T22:10:09.362Z,4.60
2018-11-04T22:13:13.253Z,2.97
2018-11-04T22:16:17.114Z,4.17
2018-11-04T22:19:21.005Z,4.20
2018-11-04T22:22:24.891Z,3.87
2018-11-04T22:25:28.769Z,3.40
2018-11-04T22:28:32.652Z,5.57
2018-11-04T22:31:36.547Z,3.40
2018-11-04T22:34:40.430Z,3.40
2018-11-04T22:37:44.313Z,3.17
2018-11-04T22:40:48.194Z,4.23
2018-11-04T22:43:52.084Z,4.60
2018-11-04T22:46:56.142Z,2.97
2018-11-04T22:50:00.045Z,4.03
2018-11-04T22:53:04.167Z,3.37
2018-11-04T22:56:08.447Z,4.33
2018-11-04T22:59:12.504Z,4.77
2018-11-04T23:02:16.361Z,4.07
2018-11-04T23:05:25.678Z,2.53
2018-11-04T23:08:29.978Z,3.23
2018-11-04T23:11:33.864Z,3.23
2018-11-04T23:14:38.086Z,3.97
2018-11-04T23:17:42.213Z,4.00
2018-11-04T23:20:46.090Z,3.70
2018-11-04T23:23:50.302Z,2.83
2018-11-04T23:26:54.211Z,3.97
2018-11-04T23:29:58.314Z,4.00
2018-11-04T23:33:02.210Z,4.87
2018-11-04T23:36:06.517Z,2.90
2018-11-04T23:39:11.151Z,3.77
2018-11-04T23:42:15.046Z,3.70
2018-11-04T23:45:19.182Z,5.07
2018-11-04T23:48:23.282Z,4.97
2018-11-04T23:51:27.182Z,3.33
2018-11-04T23:54:31.079Z,3.50
2018-11-04T23:57:34.970Z,3.57
